sensor_id;sensor_type;location;lat;lon;timestamp;pressure;altitude;pressure_sealevel;temperature;humidity
56604;BME280;42486;47.478;19.036;2023-01-27T00:00:26;100319.56;;;1.21;93.75
56604;BME280;42486;47.478;19.036;2023-01-27T00:03:29;100306.25;;;1.09;93.85
56604;BME280;42486;47.478;19.036;2023-01-27T00:06:34;100304.59;;;1.07;95.26
56604;BME280;42486;47.478;19.036;2023-01-27T00:09:39;100311.53;;;1.05;94.94
56604;BME280;42486;47.478;19.036;2023-01-27T00:12:46;100307.78;;;1.14;95.17
56604;BME280;42486;47.478;19.036;2023-01-27T00:16:08;100306.16;;;1.11;95.25
56604;BME280;42486;47.478;19.036;2023-01-27T00:19:11;100309.78;;;1.05;95.10
56604;BME280;42486;47.478;19.036;2023-01-27T00:22:14;100302.81;;;1.09;95.21
56604;BME280;42486;47.478;19.036;2023-01-27T00:25:37;100298.44;;;1.11;94.39
56604;BME280;42486;47.478;19.036;2023-01-27T00:28:46;100293.38;;;1.09;94.85
56604;BME280;42486;47.478;19.036;2023-01-27T00:31:50;100298.56;;;1.08;95.97
56604;BME280;42486;47.478;19.036;2023-01-27T00:35:18;100290.16;;;1.03;96.10
56604;BME280;42486;47.478;19.036;2023-01-27T00:38:24;100291.75;;;1.07;97.71
56604;BME280;42486;47.478;19.036;2023-01-27T00:41:28;100301.63;;;0.94;97.23
56604;BME280;42486;47.478;19.036;2023-01-27T00:44:34;100298.37;;;0.89;97.67
56604;BME280;42486;47.478;19.036;2023-01-27T00:47:38;100305.03;;;0.95;96.87
56604;BME280;42486;47.478;19.036;2023-01-27T00:50:46;100301.19;;;0.81;97.27
56604;BME280;42486;47.478;19.036;2023-01-27T00:53:50;100298.59;;;0.83;96.87
56604;BME280;42486;47.478;19.036;2023-01-27T00:56:53;100296.12;;;0.80;99.03
56604;BME280;42486;47.478;19.036;2023-01-27T00:59:59;100298.09;;;0.72;98.96
56604;BME280;42486;47.478;19.036;2023-01-27T01:03:04;100302.38;;;0.73;98.97
56604;BME280;42486;47.478;19.036;2023-01-27T01:06:10;100294.66;;;0.73;98.12
56604;BME280;42486;47.478;19.036;2023-01-27T01:09:18;100300.50;;;0.76;97.60
56604;BME280;42486;47.478;19.036;2023-01-27T01:12:23;100296.97;;;0.80;98.80
56604;BME280;42486;47.478;19.036;2023-01-27T01:15:26;100298.78;;;0.77;98.55
56604;BME280;42486;47.478;19.036;2023-01-27T01:18:31;100295.44;;;0.75;99.02
56604;BME280;42486;47.478;19.036;2023-01-27T01:21:40;100289.53;;;0.71;99.09
56604;BME280;42486;47.478;19.036;2023-01-27T01:24:44;100294.06;;;0.64;100.00
56604;BME280;42486;47.478;19.036;2023-01-27T01:27:47;100288.28;;;0.58;100.00
56604;BME280;42486;47.478;19.036;2023-01-27T01:31:17;100296.81;;;0.58;100.00
56604;BME280;42486;47.478;19.036;2023-01-27T01:34:21;100291.97;;;0.51;100.00
56604;BME280;42486;47.478;19.036;2023-01-27T01:37:26;100281.63;;;0.52;100.00
56604;BME280;42486;47.478;19.036;2023-01-27T01:40:30;100279.12;;;0.51;100.00
56604;BME280;42486;47.478;19.036;2023-01-27T01:43:33;100287.34;;;0.60;100.00
56604;BME280;42486;47.478;19.036;2023-01-27T01:46:36;100285.31;;;0.70;100.00
56604;BME280;42486;47.478;19.036;2023-01-27T01:49:43;100280.16;;;0.70;100.00
56604;BME280;42486;47.478;19.036;2023-01-27T01:52:50;100271.72;;;0.67;100.00
56604;BME280;42486;47.478;19.036;2023-01-27T01:56:05;100283.78;;;0.64;100.00
56604;BME280;42486;47.478;19.036;2023-01-27T01:59:24;100281.22;;;0.64;100.00
56604;BME280;42486;47.478;19.036;2023-01-27T02:02:30;100285.53;;;0.64;100.00
56604;BME280;42486;47.478;19.036;2023-01-27T02:05:42;100278.22;;;0.52;100.00
56604;BME280;42486;47.478;19.036;2023-01-27T02:08:49;100275.28;;;0.62;100.00
56604;BME280;42486;47.478;19.036;2023-01-27T02:11:56;100271.63;;;0.70;100.00
56604;BME280;42486;47.478;19.036;2023-01-27T02:15:00;100268.50;;;0.60;98.16
56604;BME280;42486;47.478;19.036;2023-01-27T02:18:03;100263.50;;;0.55;98.15
56604;BME280;42486;47.478;19.036;2023-01-27T02:21:12;100258.25;;;0.58;97.47
56604;BME280;42486;47.478;19.036;2023-01-27T02:24:22;100251.69;;;0.51;96.11
56604;BME280;42486;47.478;19.036;2023-01-27T02:27:33;100259.31;;;0.53;96.13
56604;BME280;42486;47.478;19.036;2023-01-27T02:30:40;100254.06;;;0.56;94.36
56604;BME280;42486;47.478;19.036;2023-01-27T02:33:59;100254.44;;;0.45;93.97
56604;BME280;42486;47.478;19.036;2023-01-27T02:37:06;100249.41;;;0.42;92.64
56604;BME280;42486;47.478;19.036;2023-01-27T02:40:14;100234.09;;;0.39;93.92
56604;BME280;42486;47.478;19.036;2023-01-27T02:43:19;100228.25;;;0.34;93.05
56604;BME280;42486;47.478;19.036;2023-01-27T02:46:28;100224.75;;;0.36;91.74
56604;BME280;42486;47.478;19.036;2023-01-27T02:49:35;100227.37;;;0.35;89.42
56604;BME280;42486;47.478;19.036;2023-01-27T02:52:42;100224.81;;;0.35;91.01
56604;BME280;42486;47.478;19.036;2023-01-27T02:55:49;100219.03;;;0.28;89.15
56604;BME280;42486;47.478;19.036;2023-01-27T02:58:54;100221.06;;;0.18;90.19
56604;BME280;42486;47.478;19.036;2023-01-27T03:01:58;100211.09;;;0.09;90.96
56604;BME280;42486;47.478;19.036;2023-01-27T03:05:03;100206.16;;;0.03;92.71
56604;BME280;42486;47.478;19.036;2023-01-27T03:08:13;100203.75;;;-0.02;93.49
56604;BME280;42486;47.478;19.036;2023-01-27T03:11:16;100204.69;;;-0.04;93.65
56604;BME280;42486;47.478;19.036;2023-01-27T03:14:39;100206.53;;;-0.08;90.83
56604;BME280;42486;47.478;19.036;2023-01-27T03:18:07;100198.03;;;-0.10;92.95
56604;BME280;42486;47.478;19.036;2023-01-27T03:21:18;100197.25;;;-0.13;92.70
56604;BME280;42486;47.478;19.036;2023-01-27T03:24:26;100187.97;;;-0.16;92.22
56604;BME280;42486;47.478;19.036;2023-01-27T03:27:30;100187.19;;;-0.19;93.57
56604;BME280;42486;47.478;19.036;2023-01-27T03:30:35;100184.72;;;-0.23;92.58
56604;BME280;42486;47.478;19.036;2023-01-27T03:33:39;100182.19;;;-0.24;91.57
56604;BME280;42486;47.478;19.036;2023-01-27T03:36:48;100182.50;;;-0.33;93.25
56604;BME280;42486;47.478;19.036;2023-01-27T03:40:16;100175.50;;;-0.28;94.43
56604;BME280;42486;47.478;19.036;2023-01-27T03:43:42;100183.31;;;-0.31;94.55
56604;BME280;42486;47.478;19.036;2023-01-27T03:47:07;100186.66;;;-0.29;92.63
56604;BME280;42486;47.478;19.036;2023-01-27T03:50:11;100175.41;;;-0.25;94.21
56604;BME280;42486;47.478;19.036;2023-01-27T03:53:26;100172.87;;;-0.27;93.51
56604;BME280;42486;47.478;19.036;2023-01-27T03:56:46;100164.41;;;-0.29;94.33
56604;BME280;42486;47.478;19.036;2023-01-27T03:59:49;100166.19;;;-0.32;94.16
56604;BME280;42486;47.478;19.036;2023-01-27T04:03:03;100162.91;;;-0.36;95.06
56604;BME280;42486;47.478;19.036;2023-01-27T04:06:27;100160.25;;;-0.33;93.46
56604;BME280;42486;47.478;19.036;2023-01-27T04:09:52;100154.06;;;-0.27;93.16
56604;BME280;42486;47.478;19.036;2023-01-27T04:12:56;100156.50;;;-0.23;91.82
56604;BME280;42486;47.478;19.036;2023-01-27T04:16:05;100158.97;;;-0.19;91.26
56604;BME280;42486;47.478;19.036;2023-01-27T04:19:11;100150.38;;;-0.18;94.20
56604;BME280;42486;47.478;19.036;2023-01-27T04:22:18;100158.16;;;-0.22;93.06
56604;BME280;42486;47.478;19.036;2023-01-27T04:25:37;100154.75;;;-0.22;94.25
56604;BME280;42486;47.478;19.036;2023-01-27T04:28:50;100153.88;;;-0.21;93.41
56604;BME280;42486;47.478;19.036;2023-01-27T04:32:03;100163.59;;;-0.31;94.14
56604;BME280;42486;47.478;19.036;2023-01-27T04:35:17;100157.16;;;-0.42;95.71
56604;BME280;42486;47.478;19.036;2023-01-27T04:38:30;100156.00;;;-0.34;94.00
56604;BME280;42486;47.478;19.036;2023-01-27T04:41:35;100162.31;;;-0.44;94.71
56604;BME280;42486;47.478;19.036;2023-01-27T04:44:42;100161.56;;;-0.48;94.23
56604;BME280;42486;47.478;19.036;2023-01-27T04:47:47;100165.72;;;-0.43;93.91
56604;BME280;42486;47.478;19.036;2023-01-27T04:50:52;100169.97;;;-0.42;92.38
56604;BME280;42486;47.478;19.036;2023-01-27T04:53:56;100162.50;;;-0.50;92.71
56604;BME280;42486;47.478;19.036;2023-01-27T04:57:05;100173.50;;;-0.47;93.99
56604;BME280;42486;47.478;19.036;2023-01-27T05:00:21;100168.47;;;-0.50;94.20
56604;BME280;42486;47.478;19.036;2023-01-27T05:03:28;100177.22;;;-0.55;94.17
56604;BME280;42486;47.478;19.036;2023-01-27T05:06:43;100178.06;;;-0.56;94.84
56604;BME280;42486;47.478;19.036;2023-01-27T05:10:02;100175.28;;;-0.49;92.97
56604;BME280;42486;47.478;19.036;2023-01-27T05:13:06;100171.28;;;-0.57;94.02
56604;BME280;42486;47.478;19.036;2023-01-27T05:16:22;100170.34;;;-0.55;93.46
56604;BME280;42486;47.478;19.036;2023-01-27T05:19:34;100175.75;;;-0.64;95.41
56604;BME280;42486;47.478;19.036;2023-01-27T05:22:44;100163.19;;;-0.72;95.87
56604;BME280;42486;47.478;19.036;2023-01-27T05:25:55;100173.56;;;-0.76;97.30
56604;BME280;42486;47.478;19.036;2023-01-27T05:29:01;100166.75;;;-0.77;96.83
56604;BME280;42486;47.478;19.036;2023-01-27T05:32:06;100171.22;;;-0.84;96.71
56604;BME280;42486;47.478;19.036;2023-01-27T05:35:13;100168.66;;;-0.84;98.67
56604;BME280;42486;47.478;19.036;2023-01-27T05:38:29;100171.44;;;-0.92;98.37
56604;BME280;42486;47.478;19.036;2023-01-27T05:41:40;100184.28;;;-0.93;99.75
56604;BME280;42486;47.478;19.036;2023-01-27T05:44:47;100171.25;;;-0.85;96.96
56604;BME280;42486;47.478;19.036;2023-01-27T05:47:55;100177.41;;;-0.91;97.72
56604;BME280;42486;47.478;19.036;2023-01-27T05:51:08;100175.56;;;-0.86;97.24
56604;BME280;42486;47.478;19.036;2023-01-27T05:54:19;100184.13;;;-0.87;98.02
56604;BME280;42486;47.478;19.036;2023-01-27T05:57:26;100181.69;;;-0.92;97.70
56604;BME280;42486;47.478;19.036;2023-01-27T06:00:33;100180.13;;;-0.96;99.68
56604;BME280;42486;47.478;19.036;2023-01-27T06:03:40;100173.06;;;-0.87;98.23
56604;BME280;42486;47.478;19.036;2023-01-27T06:06:46;100167.81;;;-0.84;97.01
56604;BME280;42486;47.478;19.036;2023-01-27T06:09:56;100172.78;;;-0.80;97.08
56604;BME280;42486;47.478;19.036;2023-01-27T06:13:02;100175.22;;;-0.75;97.90
56604;BME280;42486;47.478;19.036;2023-01-27T06:16:12;100170.09;;;-0.75;97.53
56604;BME280;42486;47.478;19.036;2023-01-27T06:19:24;100171.69;;;-0.71;95.39
56604;BME280;42486;47.478;19.036;2023-01-27T06:22:32;100163.81;;;-0.65;94.63
56604;BME280;42486;47.478;19.036;2023-01-27T06:25:41;100160.50;;;-0.69;96.06
56604;BME280;42486;47.478;19.036;2023-01-27T06:28:47;100159.59;;;-0.66;91.09
56604;BME280;42486;47.478;19.036;2023-01-27T06:31:52;100164.31;;;-0.54;90.61
56604;BME280;42486;47.478;19.036;2023-01-27T06:34:57;100166.50;;;-0.41;88.58
56604;BME280;42486;47.478;19.036;2023-01-27T06:38:04;100168.97;;;-0.38;85.68
56604;BME280;42486;47.478;19.036;2023-01-27T06:41:16;100168.78;;;-0.32;86.31
56604;BME280;42486;47.478;19.036;2023-01-27T06:44:21;100173.50;;;-0.18;84.84
56604;BME280;42486;47.478;19.036;2023-01-27T06:47:28;100173.22;;;-0.11;82.93
56604;BME280;42486;47.478;19.036;2023-01-27T06:50:38;100178.22;;;-0.06;81.75
56604;BME280;42486;47.478;19.036;2023-01-27T06:53:44;100178.91;;;-0.01;82.37
56604;BME280;42486;47.478;19.036;2023-01-27T06:56:51;100181.22;;;0.07;83.24
56604;BME280;42486;47.478;19.036;2023-01-27T06:59:57;100181.69;;;0.18;81.16
56604;BME280;42486;47.478;19.036;2023-01-27T07:03:05;100182.38;;;0.23;nan
56604;BME280;42486;47.478;19.036;2023-01-27T07:06:10;100183.03;;;0.30;81.29
56604;BME280;42486;47.478;19.036;2023-01-27T07:09:16;100181.91;;;0.37;79.85
56604;BME280;42486;47.478;19.036;2023-01-27T07:12:29;100182.47;;;0.45;77.61
56604;BME280;42486;47.478;19.036;2023-01-27T07:15:35;100188.00;;;0.59;78.91
56604;BME280;42486;47.478;19.036;2023-01-27T07:18:38;100186.00;;;0.68;76.91
56604;BME280;42486;47.478;19.036;2023-01-27T07:21:43;100189.28;;;0.71;74.90
56604;BME280;42486;47.478;19.036;2023-01-27T07:24:46;100184.81;;;0.76;75.22
56604;BME280;42486;47.478;19.036;2023-01-27T07:27:52;100186.16;;;0.86;75.49
56604;BME280;42486;47.478;19.036;2023-01-27T07:31:00;100202.66;;;0.81;74.85
56604;BME280;42486;47.478;19.036;2023-01-27T07:34:04;100196.19;;;0.94;74.03
56604;BME280;42486;47.478;19.036;2023-01-27T07:37:11;100191.53;;;1.04;76.56
56604;BME280;42486;47.478;19.036;2023-01-27T07:40:19;100195.09;;;1.00;73.42
56604;BME280;42486;47.478;19.036;2023-01-27T07:43:26;100198.88;;;0.91;73.99
56604;BME280;42486;47.478;19.036;2023-01-27T07:46:30;100185.78;;;0.97;73.49
56604;BME280;42486;47.478;19.036;2023-01-27T07:49:35;100185.38;;;1.08;75.01
56604;BME280;42486;47.478;19.036;2023-01-27T07:52:40;100176.28;;;0.99;70.38
56604;BME280;42486;47.478;19.036;2023-01-27T07:55:44;100175.47;;;0.97;70.51
56604;BME280;42486;47.478;19.036;2023-01-27T07:58:54;100178.59;;;1.05;71.62
56604;BME280;42486;47.478;19.036;2023-01-27T08:02:00;100178.44;;;1.10;71.50
56604;BME280;42486;47.478;19.036;2023-01-27T08:05:05;100186.09;;;1.12;72.20
56604;BME280;42486;47.478;19.036;2023-01-27T08:08:10;100193.97;;;1.30;71.97
56604;BME280;42486;47.478;19.036;2023-01-27T08:11:15;100195.69;;;1.30;68.92
56604;BME280;42486;47.478;19.036;2023-01-27T08:14:23;100199.06;;;1.32;68.98
56604;BME280;42486;47.478;19.036;2023-01-27T08:17:29;100195.63;;;1.31;68.09
56604;BME280;42486;47.478;19.036;2023-01-27T08:20:35;100190.44;;;1.33;68.26
56604;BME280;42486;47.478;19.036;2023-01-27T08:23:43;100187.50;;;1.42;67.76
56604;BME280;42486;47.478;19.036;2023-01-27T08:26:47;100197.09;;;1.39;66.91
56604;BME280;42486;47.478;19.036;2023-01-27T08:29:52;100190.75;;;1.47;66.73
56604;BME280;42486;47.478;19.036;2023-01-27T08:32:57;100198.50;;;1.46;67.70
56604;BME280;42486;47.478;19.036;2023-01-27T08:36:12;100193.81;;;1.57;68.03
56604;BME280;42486;47.478;19.036;2023-01-27T08:39:16;100197.56;;;1.48;67.07
56604;BME280;42486;47.478;19.036;2023-01-27T08:42:28;100195.47;;;1.58;67.29
56604;BME280;42486;47.478;19.036;2023-01-27T08:45:35;100199.00;;;1.56;65.08
56604;BME280;42486;47.478;19.036;2023-01-27T08:48:41;100203.03;;;1.63;65.16
56604;BME280;42486;47.478;19.036;2023-01-27T08:51:52;100206.13;;;1.71;65.64
56604;BME280;42486;47.478;19.036;2023-01-27T08:54:58;100213.66;;;1.75;64.76
56604;BME280;42486;47.478;19.036;2023-01-27T08:58:06;100206.94;;;1.73;64.17
56604;BME280;42486;47.478;19.036;2023-01-27T09:01:12;100209.34;;;1.54;64.79
56604;BME280;42486;47.478;19.036;2023-01-27T09:04:22;100211.41;;;1.68;64.50
56604;BME280;42486;47.478;19.036;2023-01-27T09:07:28;100209.53;;;1.71;66.20
56604;BME280;42486;47.478;19.036;2023-01-27T09:10:40;100220.06;;;1.43;66.34
56604;BME280;42486;47.478;19.036;2023-01-27T09:13:46;100222.84;;;1.39;66.15
56604;BME280;42486;47.478;19.036;2023-01-27T09:16:51;100229.06;;;1.33;67.67
56604;BME280;42486;47.478;19.036;2023-01-27T09:19:57;100220.94;;;1.44;67.77
56604;BME280;42486;47.478;19.036;2023-01-27T09:23:06;100226.56;;;1.30;69.05
56604;BME280;42486;47.478;19.036;2023-01-27T09:26:17;100223.16;;;1.29;69.33
56604;BME280;42486;47.478;19.036;2023-01-27T09:29:22;100231.00;;;1.26;71.34
56604;BME280;42486;47.478;19.036;2023-01-27T09:32:28;100231.56;;;1.11;72.12
56604;BME280;42486;47.478;19.036;2023-01-27T09:35:43;100223.78;;;1.36;70.92
56604;BME280;42486;47.478;19.036;2023-01-27T09:39:03;100225.31;;;1.18;71.35
56604;BME280;42486;47.478;19.036;2023-01-27T10:00:08;100220.19;;;1.62;72.21
56604;BME280;42486;47.478;19.036;2023-01-27T10:03:31;100221.47;;;1.52;72.14
56604;BME280;42486;47.478;19.036;2023-01-27T10:14:18;100227.44;;;1.30;77.47
56604;BME280;42486;47.478;19.036;2023-01-27T10:20:51;100221.69;;;1.46;77.01
56604;BME280;42486;47.478;19.036;2023-01-27T10:27:23;100230.09;;;1.27;78.32
56604;BME280;42486;47.478;19.036;2023-01-27T10:30:37;100224.84;;;1.30;77.46
56604;BME280;42486;47.478;19.036;2023-01-27T10:33:56;100224.75;;;1.34;79.25
56604;BME280;42486;47.478;19.036;2023-01-27T10:37:13;100223.37;;;1.47;78.27
56604;BME280;42486;47.478;19.036;2023-01-27T10:44:27;100214.25;;;1.38;80.36
56604;BME280;42486;47.478;19.036;2023-01-27T10:47:55;100212.03;;;1.29;81.55
56604;BME280;42486;47.478;19.036;2023-01-27T10:51:46;100211.25;;;1.27;80.85
56604;BME280;42486;47.478;19.036;2023-01-27T10:54:59;100206.47;;;1.40;81.64
56604;BME280;42486;47.478;19.036;2023-01-27T10:58:35;100206.66;;;1.35;85.21
56604;BME280;42486;47.478;19.036;2023-01-27T11:01:55;100202.66;;;1.50;83.24
56604;BME280;42486;47.478;19.036;2023-01-27T11:05:08;100191.53;;;1.49;83.97
56604;BME280;42486;47.478;19.036;2023-01-27T11:08:28;100196.37;;;1.57;86.73
56604;BME280;42486;47.478;19.036;2023-01-27T11:11:35;100188.03;;;1.06;87.61
56604;BME280;42486;47.478;19.036;2023-01-27T11:14:53;100184.84;;;1.22;87.78
56604;BME280;42486;47.478;19.036;2023-01-27T11:17:56;100186.03;;;0.90;90.15
56604;BME280;42486;47.478;19.036;2023-01-27T11:24:59;100177.47;;;0.91;92.78
56604;BME280;42486;47.478;19.036;2023-01-27T11:35:04;100176.31;;;1.21;96.18
56604;BME280;42486;47.478;19.036;2023-01-27T11:38:19;100176.59;;;1.36;97.97
56604;BME280;42486;47.478;19.036;2023-01-27T11:41:39;100170.88;;;1.29;94.23
56604;BME280;42486;47.478;19.036;2023-01-27T11:44:51;100164.72;;;1.33;95.45
56604;BME280;42486;47.478;19.036;2023-01-27T11:48:00;100167.09;;;0.92;97.67
56604;BME280;42486;47.478;19.036;2023-01-27T11:51:22;100160.16;;;0.94;99.29
56604;BME280;42486;47.478;19.036;2023-01-27T11:54:39;100160.03;;;0.97;98.60
56604;BME280;42486;47.478;19.036;2023-01-27T11:57:57;100147.44;;;1.13;98.09
56604;BME280;42486;47.478;19.036;2023-01-27T12:01:14;100146.63;;;1.13;97.16
56604;BME280;42486;47.478;19.036;2023-01-27T12:07:51;100131.56;;;1.25;98.53
56604;BME280;42486;47.478;19.036;2023-01-27T12:11:19;100137.28;;;1.54;99.04
56604;BME280;42486;47.478;19.036;2023-01-27T12:14:30;100129.63;;;1.52;98.30
56604;BME280;42486;47.478;19.036;2023-01-27T12:17:40;100127.78;;;1.34;97.68
56604;BME280;42486;47.478;19.036;2023-01-27T12:20:58;100129.03;;;1.24;99.54
56604;BME280;42486;47.478;19.036;2023-01-27T12:24:03;100127.00;;;1.32;99.85
56604;BME280;42486;47.478;19.036;2023-01-27T12:27:25;100128.03;;;1.28;100.00
56604;BME280;42486;47.478;19.036;2023-01-27T12:30:38;100117.81;;;1.25;100.00
56604;BME280;42486;47.478;19.036;2023-01-27T12:33:45;100108.31;;;1.49;100.00
56604;BME280;42486;47.478;19.036;2023-01-27T12:36:52;100099.34;;;1.37;100.00
56604;BME280;42486;47.478;19.036;2023-01-27T12:40:14;100109.59;;;1.39;100.00
56604;BME280;42486;47.478;19.036;2023-01-27T12:43:24;100110.22;;;1.00;100.00
56604;BME280;42486;47.478;19.036;2023-01-27T12:46:33;100102.06;;;1.12;100.00
56604;BME280;42486;47.478;19.036;2023-01-27T12:49:39;100101.28;;;1.10;100.00
56604;BME280;42486;47.478;19.036;2023-01-27T12:53:12;100106.69;;;1.24;100.00
56604;BME280;42486;47.478;19.036;2023-01-27T12:56:23;100100.25;;;1.36;100.00
56604;BME280;42486;47.478;19.036;2023-01-27T12:59:51;100103.16;;;1.27;100.00
56604;BME280;42486;47.478;19.036;2023-01-27T13:03:11;100109.94;;;1.07;100.00
56604;BME280;42486;47.478;19.036;2023-01-27T13:06:19;100108.59;;;0.97;100.00
56604;BME280;42486;47.478;19.036;2023-01-27T13:09:35;100106.69;;;1.02;100.00
56604;BME280;42486;47.478;19.036;2023-01-27T13:12:59;100111.31;;;0.94;100.00
56604;BME280;42486;47.478;19.036;2023-01-27T13:16:49;100107.28;;;0.87;100.00
56604;BME280;42486;47.478;19.036;2023-01-27T13:23:25;100121.22;;;1.03;100.00
56604;BME280;42486;47.478;19.036;2023-01-27T13:26:38;100127.81;;;1.10;100.00
56604;BME280;42486;47.478;19.036;2023-01-27T13:30:29;100132.63;;;1.20;100.00
56604;BME280;42486;47.478;19.036;2023-01-27T13:33:49;100132.63;;;1.20;100.00
56604;BME280;42486;47.478;19.036;2023-01-27T13:37:15;100139.50;;;1.19;100.00
56604;BME280;42486;47.478;19.036;2023-01-27T13:40:32;100134.00;;;1.28;100.00
56604;BME280;42486;47.478;19.036;2023-01-27T13:43:39;100130.34;;;1.34;100.00
56604;BME280;42486;47.478;19.036;2023-01-27T13:46:50;100129.69;;;1.29;100.00
56604;BME280;42486;47.478;19.036;2023-01-27T13:50:07;100128.37;;;1.19;100.00
56604;BME280;42486;47.478;19.036;2023-01-27T13:53:23;100127.81;;;1.10;100.00
56604;BME280;42486;47.478;19.036;2023-01-27T14:03:26;100138.38;;;1.26;100.00
56604;BME280;42486;47.478;19.036;2023-01-27T14:06:41;100127.22;;;1.48;100.00
56604;BME280;42486;47.478;19.036;2023-01-27T14:29:55;100134.53;;;1.15;100.00
56604;BME280;42486;47.478;19.036;2023-01-27T14:36:46;100121.50;;;0.96;100.00
56604;BME280;42486;47.478;19.036;2023-01-27T14:43:50;100124.75;;;1.01;100.00
56604;BME280;42486;47.478;19.036;2023-01-27T14:53:37;100129.34;;;0.93;100.00
56604;BME280;42486;47.478;19.036;2023-01-27T15:00:32;100129.63;;;0.85;100.00
56604;BME280;42486;47.478;19.036;2023-01-27T15:07:16;100127.06;;;0.85;100.00
56604;BME280;42486;47.478;19.036;2023-01-27T15:10:26;100117.63;;;0.85;100.00
56604;BME280;42486;47.478;19.036;2023-01-27T15:20:54;100122.78;;;0.85;100.00
56604;BME280;42486;47.478;19.036;2023-01-27T15:27:10;100122.25;;;0.99;100.00
56604;BME280;42486;47.478;19.036;2023-01-27T15:30:25;100124.03;;;0.97;100.00
56604;BME280;42486;47.478;19.036;2023-01-27T15:37:01;100136.94;;;0.96;100.00
56604;BME280;42486;47.478;19.036;2023-01-27T15:40:15;100140.44;;;0.95;100.00
56604;BME280;42486;47.478;19.036;2023-01-27T15:43:21;100154.88;;;0.99;100.00
56604;BME280;42486;47.478;19.036;2023-01-27T15:46:30;100156.47;;;1.01;100.00
56604;BME280;42486;47.478;19.036;2023-01-27T15:49:55;100149.72;;;0.99;100.00
56604;BME280;42486;47.478;19.036;2023-01-27T15:53:47;100144.66;;;0.96;100.00
56604;BME280;42486;47.478;19.036;2023-01-27T15:56:48;100155.81;;;0.96;100.00
56604;BME280;42486;47.478;19.036;2023-01-27T16:00:00;100144.56;;;0.99;100.00
56604;BME280;42486;47.478;19.036;2023-01-27T16:03:34;100137.53;;;1.04;100.00
56604;BME280;42486;47.478;19.036;2023-01-27T16:06:48;100137.03;;;0.94;100.00
56604;BME280;42486;47.478;19.036;2023-01-27T16:10:04;100141.09;;;1.00;100.00
56604;BME280;42486;47.478;19.036;2023-01-27T16:13:29;100141.09;;;1.00;100.00
56604;BME280;42486;47.478;19.036;2023-01-27T16:16:33;100153.34;;;0.93;100.00
56604;BME280;42486;47.478;19.036;2023-01-27T16:27:43;100159.09;;;1.00;100.00
56604;BME280;42486;47.478;19.036;2023-01-27T16:31:19;100157.31;;;1.02;100.00
56604;BME280;42486;47.478;19.036;2023-01-27T16:34:45;100167.44;;;1.06;100.00
56604;BME280;42486;47.478;19.036;2023-01-27T16:38:01;100165.56;;;1.10;100.00
56604;BME280;42486;47.478;19.036;2023-01-27T16:41:45;100170.88;;;1.05;100.00
56604;BME280;42486;47.478;19.036;2023-01-27T16:44:55;100168.94;;;1.12;100.00
56604;BME280;42486;47.478;19.036;2023-01-27T16:51:26;100188.50;;;1.16;100.00
56604;BME280;42486;47.478;19.036;2023-01-27T16:54:37;100187.69;;;1.14;100.00
56604;BME280;42486;47.478;19.036;2023-01-27T16:57:47;100192.81;;;1.16;100.00
56604;BME280;42486;47.478;19.036;2023-01-27T17:00:57;100195.34;;;1.17;100.00
56604;BME280;42486;47.478;19.036;2023-01-27T17:04:07;100187.91;;;1.09;100.00
56604;BME280;42486;47.478;19.036;2023-01-27T17:07:22;100190.41;;;1.11;100.00
56604;BME280;42486;47.478;19.036;2023-01-27T17:10:32;100197.59;;;1.25;100.00
56604;BME280;42486;47.478;19.036;2023-01-27T17:13:49;100197.72;;;1.22;100.00
56604;BME280;42486;47.478;19.036;2023-01-27T17:16:57;100195.78;;;1.05;100.00
56604;BME280;42486;47.478;19.036;2023-01-27T17:20:04;100192.41;;;1.03;100.00
56604;BME280;42486;47.478;19.036;2023-01-27T17:23:31;100204.16;;;1.10;100.00
56604;BME280;42486;47.478;19.036;2023-01-27T17:26:36;100200.00;;;1.06;100.00
56604;BME280;42486;47.478;19.036;2023-01-27T17:29:44;100201.47;;;1.13;100.00
56604;BME280;42486;47.478;19.036;2023-01-27T17:32:54;100201.62;;;1.08;100.00
56604;BME280;42486;47.478;19.036;2023-01-27T17:36:11;100202.66;;;1.04;100.00
56604;BME280;42486;47.478;19.036;2023-01-27T17:39:24;100201.88;;;1.02;100.00
56604;BME280;42486;47.478;19.036;2023-01-27T17:42:30;100203.53;;;1.03;100.00
56604;BME280;42486;47.478;19.036;2023-01-27T17:45:34;100199.34;;;1.01;100.00
56604;BME280;42486;47.478;19.036;2023-01-27T17:48:49;100195.78;;;1.05;100.00
56604;BME280;42486;47.478;19.036;2023-01-27T17:51:54;100203.63;;;1.02;100.00
56604;BME280;42486;47.478;19.036;2023-01-27T17:54:59;100198.62;;;0.97;100.00
56604;BME280;42486;47.478;19.036;2023-01-27T17:58:10;100203.44;;;1.06;100.00
56604;BME280;42486;47.478;19.036;2023-01-27T18:01:22;100196.56;;;1.07;100.00
56604;BME280;42486;47.478;19.036;2023-01-27T18:04:38;100202.38;;;1.12;100.00
56604;BME280;42486;47.478;19.036;2023-01-27T18:07:42;100199.91;;;1.09;100.00
56604;BME280;42486;47.478;19.036;2023-01-27T18:10:47;100205.16;;;1.06;100.00
56604;BME280;42486;47.478;19.036;2023-01-27T18:13:52;100205.03;;;1.09;100.00
56604;BME280;42486;47.478;19.036;2023-01-27T18:17:18;100206.75;;;1.10;100.00
56604;BME280;42486;47.478;19.036;2023-01-27T18:20:37;100209.31;;;1.10;100.00
56604;BME280;42486;47.478;19.036;2023-01-27T18:23:54;100216.78;;;1.16;100.00
56604;BME280;42486;47.478;19.036;2023-01-27T18:27:01;100222.09;;;1.12;100.00
56604;BME280;42486;47.478;19.036;2023-01-27T18:30:11;100222.78;;;1.17;100.00
56604;BME280;42486;47.478;19.036;2023-01-27T18:33:20;100221.06;;;1.17;100.00
56604;BME280;42486;47.478;19.036;2023-01-27T18:36:23;100217.69;;;1.15;100.00
56604;BME280;42486;47.478;19.036;2023-01-27T18:39:38;100222.63;;;1.21;100.00